Главная страница
METAR-TAF:

METAR-TAF

Аэропорты :

Лондон-Хитроу, Англия

Хитроу

широта: 51-29N, долгота: 000-27W, высота над уровнем моря: 24 м

Текущие метеонаблюдения

Эта сводка был подготовлена 14 минут назад, в 22:20 UTC
Ветер 4 Узел от северный
Температура 0°C
Влажность 80%
Давление 1023 hPa
Видимость 10 км и более

METAR: EGLL 222220Z AUTO 01004KT 9999 NCD 00/M03 Q1023

Время: 22:34 (22:34 UTC)

Прогноз

Эта сводка был подготовлена 5 часа и 29 минут назад, в 17:05 UTC
Прогноз действительный с 22-го 18 UTC до 23-го 24 UTC
Ветер 8 Узел от восточный
Видимость 10 км и более
небольшая облачность на высоте 3000 фута
Вероятность 30% :
временами
С 23-го 02 UTC до 23-го 08 UTC
Видимость: 8000 м

TAF: EGLL 221705Z 2218/2324 08008KT 9999 FEW030 PROB30 TEMPO 2302/2308 8000

Метеонаблюдения и прогнозы для более 4000 аэропортов (сводки METAR и TAF).

Имеющиеся станции представлены на карте желтыми и красными точками.

Чтобы увидеть название станции, наведите на нее мышь.

Затем щелкните, чтобы увидеть метеонаблюдения и метеопрогнозы.

Управление картой: чтобы увеличить масштаб, щелкните зеленые кнопки с черным крестиком; чтобы уменьшить масштаб, щелкните зеленую кнопку с тире; для просмотра соседних карт щелкайте зеленые стрелки.


METAR-TAF: